sensor_id;sensor_type;location;lat;lon;timestamp;P1;durP1;ratioP1;P2;durP2;ratioP2
29516;SDS011;40993;50.594;8.664;2022-10-16T00:01:17;4.43;;;3.67;;
29516;SDS011;40993;50.594;8.664;2022-10-16T00:03:46;12.35;;;8.88;;
29516;SDS011;40993;50.594;8.664;2022-10-16T00:06:15;14.60;;;8.02;;
29516;SDS011;40993;50.594;8.664;2022-10-16T00:08:44;8.82;;;6.55;;
29516;SDS011;40993;50.594;8.664;2022-10-16T00:11:13;9.75;;;6.00;;
29516;SDS011;40993;50.594;8.664;2022-10-16T00:13:42;5.47;;;4.20;;
29516;SDS011;40993;50.594;8.664;2022-10-16T00:16:12;6.38;;;3.67;;
29516;SDS011;40993;50.594;8.664;2022-10-16T00:18:41;7.95;;;3.58;;
29516;SDS011;40993;50.594;8.664;2022-10-16T00:21:09;8.73;;;3.70;;
29516;SDS011;40993;50.594;8.664;2022-10-16T00:23:40;5.63;;;3.55;;
29516;SDS011;40993;50.594;8.664;2022-10-16T00:26:08;5.57;;;3.10;;
29516;SDS011;40993;50.594;8.664;2022-10-16T00:28:38;3.63;;;2.83;;
29516;SDS011;40993;50.594;8.664;2022-10-16T00:31:06;3.78;;;2.95;;
29516;SDS011;40993;50.594;8.664;2022-10-16T00:33:35;6.60;;;3.00;;
29516;SDS011;40993;50.594;8.664;2022-10-16T00:36:04;5.55;;;3.10;;
29516;SDS011;40993;50.594;8.664;2022-10-16T00:38:33;3.63;;;2.97;;
29516;SDS011;40993;50.594;8.664;2022-10-16T00:41:05;6.65;;;2.92;;
29516;SDS011;40993;50.594;8.664;2022-10-16T00:43:34;5.47;;;2.80;;
29516;SDS011;40993;50.594;8.664;2022-10-16T00:46:05;3.67;;;2.80;;
29516;SDS011;40993;50.594;8.664;2022-10-16T00:48:38;4.43;;;2.97;;
29516;SDS011;40993;50.594;8.664;2022-10-16T00:51:06;5.63;;;2.88;;
29516;SDS011;40993;50.594;8.664;2022-10-16T00:53:34;4.03;;;2.72;;
29516;SDS011;40993;50.594;8.664;2022-10-16T00:56:02;4.78;;;2.78;;
29516;SDS011;40993;50.594;8.664;2022-10-16T00:58:31;4.55;;;2.80;;
29516;SDS011;40993;50.594;8.664;2022-10-16T01:00:59;4.70;;;2.80;;
29516;SDS011;40993;50.594;8.664;2022-10-16T01:03:27;4.55;;;2.75;;
29516;SDS011;40993;50.594;8.664;2022-10-16T01:06:09;3.47;;;2.83;;
29516;SDS011;40993;50.594;8.664;2022-10-16T01:08:44;3.35;;;2.47;;
29516;SDS011;40993;50.594;8.664;2022-10-16T01:11:19;4.30;;;2.72;;
29516;SDS011;40993;50.594;8.664;2022-10-16T01:13:54;4.22;;;2.70;;
29516;SDS011;40993;50.594;8.664;2022-10-16T01:16:24;4.07;;;2.70;;
29516;SDS011;40993;50.594;8.664;2022-10-16T01:18:58;3.22;;;2.60;;
29516;SDS011;40993;50.594;8.664;2022-10-16T01:21:29;3.22;;;2.60;;
29516;SDS011;40993;50.594;8.664;2022-10-16T01:24:01;3.53;;;2.97;;
29516;SDS011;40993;50.594;8.664;2022-10-16T01:26:32;4.57;;;2.85;;
29516;SDS011;40993;50.594;8.664;2022-10-16T01:29:07;3.22;;;2.70;;
29516;SDS011;40993;50.594;8.664;2022-10-16T01:31:37;3.78;;;3.00;;
29516;SDS011;40993;50.594;8.664;2022-10-16T01:34:08;5.75;;;3.17;;
29516;SDS011;40993;50.594;8.664;2022-10-16T01:36:43;3.28;;;2.80;;
29516;SDS011;40993;50.594;8.664;2022-10-16T01:39:13;3.55;;;2.88;;
29516;SDS011;40993;50.594;8.664;2022-10-16T01:41:43;6.13;;;2.75;;
29516;SDS011;40993;50.594;8.664;2022-10-16T01:44:14;4.88;;;3.00;;
29516;SDS011;40993;50.594;8.664;2022-10-16T01:46:45;4.13;;;3.10;;
29516;SDS011;40993;50.594;8.664;2022-10-16T01:49:13;6.78;;;2.80;;
29516;SDS011;40993;50.594;8.664;2022-10-16T01:51:41;3.05;;;2.70;;
29516;SDS011;40993;50.594;8.664;2022-10-16T01:54:16;4.93;;;2.90;;
29516;SDS011;40993;50.594;8.664;2022-10-16T01:56:45;6.82;;;2.88;;
29516;SDS011;40993;50.594;8.664;2022-10-16T01:59:15;3.08;;;2.60;;
29516;SDS011;40993;50.594;8.664;2022-10-16T02:01:49;3.65;;;2.65;;
29516;SDS011;40993;50.594;8.664;2022-10-16T02:04:22;2.90;;;2.55;;
29516;SDS011;40993;50.594;8.664;2022-10-16T02:09:23;4.05;;;2.50;;
29516;SDS011;40993;50.594;8.664;2022-10-16T02:11:51;3.45;;;2.90;;
29516;SDS011;40993;50.594;8.664;2022-10-16T02:14:22;9.57;;;2.80;;
29516;SDS011;40993;50.594;8.664;2022-10-16T02:16:53;3.65;;;2.83;;
29516;SDS011;40993;50.594;8.664;2022-10-16T02:19:52;5.20;;;2.87;;
29516;SDS011;40993;50.594;8.664;2022-10-16T02:22:45;2.83;;;2.38;;
29516;SDS011;40993;50.594;8.664;2022-10-16T02:25:15;3.00;;;2.40;;
29516;SDS011;40993;50.594;8.664;2022-10-16T02:27:46;4.45;;;2.50;;
29516;SDS011;40993;50.594;8.664;2022-10-16T02:30:19;5.50;;;2.65;;
29516;SDS011;40993;50.594;8.664;2022-10-16T02:32:49;3.97;;;2.50;;
29516;SDS011;40993;50.594;8.664;2022-10-16T02:35:18;4.97;;;2.50;;
29516;SDS011;40993;50.594;8.664;2022-10-16T02:37:46;3.83;;;2.50;;
29516;SDS011;40993;50.594;8.664;2022-10-16T02:40:15;4.90;;;2.40;;
29516;SDS011;40993;50.594;8.664;2022-10-16T02:42:49;4.05;;;2.47;;
29516;SDS011;40993;50.594;8.664;2022-10-16T02:45:19;3.28;;;2.58;;
29516;SDS011;40993;50.594;8.664;2022-10-16T02:47:47;3.20;;;2.47;;
29516;SDS011;40993;50.594;8.664;2022-10-16T02:50:14;2.42;;;2.22;;
29516;SDS011;40993;50.594;8.664;2022-10-16T02:52:42;4.40;;;2.45;;
29516;SDS011;40993;50.594;8.664;2022-10-16T02:55:09;3.15;;;2.30;;
29516;SDS011;40993;50.594;8.664;2022-10-16T02:57:37;3.13;;;2.30;;
29516;SDS011;40993;50.594;8.664;2022-10-16T03:00:06;3.88;;;2.58;;
29516;SDS011;40993;50.594;8.664;2022-10-16T03:02:37;6.05;;;2.40;;
29516;SDS011;40993;50.594;8.664;2022-10-16T03:05:05;7.15;;;2.58;;
29516;SDS011;40993;50.594;8.664;2022-10-16T03:07:33;7.60;;;2.83;;
29516;SDS011;40993;50.594;8.664;2022-10-16T03:10:00;2.60;;;2.13;;
29516;SDS011;40993;50.594;8.664;2022-10-16T03:12:28;6.45;;;2.55;;
29516;SDS011;40993;50.594;8.664;2022-10-16T03:14:56;5.82;;;2.47;;
29516;SDS011;40993;50.594;8.664;2022-10-16T03:17:23;2.90;;;2.35;;
29516;SDS011;40993;50.594;8.664;2022-10-16T03:19:53;6.25;;;2.40;;
29516;SDS011;40993;50.594;8.664;2022-10-16T03:22:20;3.60;;;2.22;;
29516;SDS011;40993;50.594;8.664;2022-10-16T03:24:48;3.20;;;2.35;;
29516;SDS011;40993;50.594;8.664;2022-10-16T03:27:15;3.95;;;2.58;;
29516;SDS011;40993;50.594;8.664;2022-10-16T03:29:43;3.88;;;2.78;;
29516;SDS011;40993;50.594;8.664;2022-10-16T03:32:10;3.15;;;2.40;;
29516;SDS011;40993;50.594;8.664;2022-10-16T03:34:37;4.15;;;2.35;;
29516;SDS011;40993;50.594;8.664;2022-10-16T03:37:06;6.40;;;2.65;;
29516;SDS011;40993;50.594;8.664;2022-10-16T03:39:34;3.13;;;2.70;;
29516;SDS011;40993;50.594;8.664;2022-10-16T03:42:01;7.53;;;2.80;;
29516;SDS011;40993;50.594;8.664;2022-10-16T03:44:29;7.35;;;2.70;;
29516;SDS011;40993;50.594;8.664;2022-10-16T03:46:56;4.65;;;2.63;;
29516;SDS011;40993;50.594;8.664;2022-10-16T03:49:24;6.20;;;2.45;;
29516;SDS011;40993;50.594;8.664;2022-10-16T03:51:51;5.18;;;2.88;;
29516;SDS011;40993;50.594;8.664;2022-10-16T03:54:20;3.90;;;2.45;;
29516;SDS011;40993;50.594;8.664;2022-10-16T03:56:48;5.35;;;2.60;;
29516;SDS011;40993;50.594;8.664;2022-10-16T03:59:15;6.40;;;2.50;;
29516;SDS011;40993;50.594;8.664;2022-10-16T04:01:43;3.70;;;2.42;;
29516;SDS011;40993;50.594;8.664;2022-10-16T04:04:10;6.65;;;2.63;;
29516;SDS011;40993;50.594;8.664;2022-10-16T04:06:38;6.32;;;2.90;;
29516;SDS011;40993;50.594;8.664;2022-10-16T04:09:05;3.58;;;2.90;;
29516;SDS011;40993;50.594;8.664;2022-10-16T04:11:34;4.20;;;2.45;;
29516;SDS011;40993;50.594;8.664;2022-10-16T04:14:01;3.28;;;2.47;;
29516;SDS011;40993;50.594;8.664;2022-10-16T04:16:29;5.50;;;2.58;;
29516;SDS011;40993;50.594;8.664;2022-10-16T04:18:56;3.75;;;2.67;;
29516;SDS011;40993;50.594;8.664;2022-10-16T04:21:23;3.17;;;2.53;;
29516;SDS011;40993;50.594;8.664;2022-10-16T04:23:51;3.17;;;2.30;;
29516;SDS011;40993;50.594;8.664;2022-10-16T04:26:18;5.25;;;2.70;;
29516;SDS011;40993;50.594;8.664;2022-10-16T04:28:47;5.28;;;2.58;;
29516;SDS011;40993;50.594;8.664;2022-10-16T04:31:15;3.85;;;2.53;;
29516;SDS011;40993;50.594;8.664;2022-10-16T04:33:43;5.55;;;2.58;;
29516;SDS011;40993;50.594;8.664;2022-10-16T04:36:11;4.68;;;2.53;;
29516;SDS011;40993;50.594;8.664;2022-10-16T04:38:38;5.93;;;2.90;;
29516;SDS011;40993;50.594;8.664;2022-10-16T04:41:06;3.88;;;2.67;;
29516;SDS011;40993;50.594;8.664;2022-10-16T04:43:34;3.63;;;2.60;;
29516;SDS011;40993;50.594;8.664;2022-10-16T04:46:03;6.20;;;2.95;;
29516;SDS011;40993;50.594;8.664;2022-10-16T04:48:31;8.07;;;2.85;;
29516;SDS011;40993;50.594;8.664;2022-10-16T04:50:59;8.57;;;2.90;;
29516;SDS011;40993;50.594;8.664;2022-10-16T04:53:27;6.80;;;3.42;;
29516;SDS011;40993;50.594;8.664;2022-10-16T04:55:54;6.75;;;5.63;;
29516;SDS011;40993;50.594;8.664;2022-10-16T04:58:22;7.35;;;4.20;;
29516;SDS011;40993;50.594;8.664;2022-10-16T05:00:49;7.07;;;3.88;;
29516;SDS011;40993;50.594;8.664;2022-10-16T05:03:18;6.07;;;3.53;;
29516;SDS011;40993;50.594;8.664;2022-10-16T05:05:46;7.90;;;3.50;;
29516;SDS011;40993;50.594;8.664;2022-10-16T05:08:14;4.60;;;3.30;;
29516;SDS011;40993;50.594;8.664;2022-10-16T05:10:42;6.20;;;3.10;;
29516;SDS011;40993;50.594;8.664;2022-10-16T05:13:11;5.20;;;3.78;;
29516;SDS011;40993;50.594;8.664;2022-10-16T05:15:41;8.85;;;4.57;;
29516;SDS011;40993;50.594;8.664;2022-10-16T05:18:15;4.78;;;3.75;;
29516;SDS011;40993;50.594;8.664;2022-10-16T05:20:53;9.20;;;3.78;;
29516;SDS011;40993;50.594;8.664;2022-10-16T05:23:20;4.38;;;3.38;;
29516;SDS011;40993;50.594;8.664;2022-10-16T05:25:54;3.88;;;3.30;;
29516;SDS011;40993;50.594;8.664;2022-10-16T05:28:24;6.55;;;4.00;;
29516;SDS011;40993;50.594;8.664;2022-10-16T05:30:52;8.07;;;6.30;;
29516;SDS011;40993;50.594;8.664;2022-10-16T05:33:20;11.23;;;6.85;;
29516;SDS011;40993;50.594;8.664;2022-10-16T05:35:47;10.25;;;5.75;;
29516;SDS011;40993;50.594;8.664;2022-10-16T05:38:17;11.43;;;4.30;;
29516;SDS011;40993;50.594;8.664;2022-10-16T05:40:50;6.10;;;3.17;;
29516;SDS011;40993;50.594;8.664;2022-10-16T05:43:17;9.50;;;3.73;;
29516;SDS011;40993;50.594;8.664;2022-10-16T05:45:52;8.15;;;4.25;;
29516;SDS011;40993;50.594;8.664;2022-10-16T05:48:20;4.22;;;3.40;;
29516;SDS011;40993;50.594;8.664;2022-10-16T05:50:48;8.00;;;3.38;;
29516;SDS011;40993;50.594;8.664;2022-10-16T05:53:17;5.90;;;3.15;;
29516;SDS011;40993;50.594;8.664;2022-10-16T05:55:51;5.00;;;3.10;;
29516;SDS011;40993;50.594;8.664;2022-10-16T05:58:19;4.60;;;3.03;;
29516;SDS011;40993;50.594;8.664;2022-10-16T06:00:52;4.80;;;3.10;;
29516;SDS011;40993;50.594;8.664;2022-10-16T06:03:20;4.18;;;3.35;;
29516;SDS011;40993;50.594;8.664;2022-10-16T06:05:48;4.70;;;3.20;;
29516;SDS011;40993;50.594;8.664;2022-10-16T06:08:17;7.07;;;3.78;;
29516;SDS011;40993;50.594;8.664;2022-10-16T06:10:45;8.23;;;4.60;;
29516;SDS011;40993;50.594;8.664;2022-10-16T06:13:12;16.27;;;7.47;;
29516;SDS011;40993;50.594;8.664;2022-10-16T06:15:41;11.68;;;6.82;;
29516;SDS011;40993;50.594;8.664;2022-10-16T06:18:09;17.48;;;10.07;;
29516;SDS011;40993;50.594;8.664;2022-10-16T06:20:37;10.55;;;5.90;;
29516;SDS011;40993;50.594;8.664;2022-10-16T06:23:04;37.30;;;20.67;;
29516;SDS011;40993;50.594;8.664;2022-10-16T06:25:33;6.15;;;3.20;;
29516;SDS011;40993;50.594;8.664;2022-10-16T06:28:00;4.60;;;2.67;;
29516;SDS011;40993;50.594;8.664;2022-10-16T06:30:28;7.10;;;2.50;;
29516;SDS011;40993;50.594;8.664;2022-10-16T06:32:55;7.85;;;3.53;;
29516;SDS011;40993;50.594;8.664;2022-10-16T06:35:23;10.63;;;4.75;;
29516;SDS011;40993;50.594;8.664;2022-10-16T06:37:52;5.72;;;2.70;;
29516;SDS011;40993;50.594;8.664;2022-10-16T06:40:19;5.00;;;2.80;;
29516;SDS011;40993;50.594;8.664;2022-10-16T06:42:48;4.88;;;2.38;;
29516;SDS011;40993;50.594;8.664;2022-10-16T06:45:16;13.65;;;5.78;;
29516;SDS011;40993;50.594;8.664;2022-10-16T06:47:43;135.00;;;51.63;;
29516;SDS011;40993;50.594;8.664;2022-10-16T06:50:11;105.30;;;40.15;;
29516;SDS011;40993;50.594;8.664;2022-10-16T06:52:38;189.23;;;66.90;;
29516;SDS011;40993;50.594;8.664;2022-10-16T06:55:06;176.35;;;57.83;;
29516;SDS011;40993;50.594;8.664;2022-10-16T06:57:34;164.63;;;55.40;;
29516;SDS011;40993;50.594;8.664;2022-10-16T07:00:03;190.18;;;70.85;;
29516;SDS011;40993;50.594;8.664;2022-10-16T07:02:31;119.03;;;48.00;;
29516;SDS011;40993;50.594;8.664;2022-10-16T07:04:59;108.70;;;46.13;;
29516;SDS011;40993;50.594;8.664;2022-10-16T07:07:30;112.85;;;48.65;;
29516;SDS011;40993;50.594;8.664;2022-10-16T07:10:09;53.55;;;27.05;;
29516;SDS011;40993;50.594;8.664;2022-10-16T07:12:37;30.75;;;14.43;;
29516;SDS011;40993;50.594;8.664;2022-10-16T07:21:03;10.32;;;7.50;;
29516;SDS011;40993;50.594;8.664;2022-10-16T07:23:31;8.10;;;4.10;;
29516;SDS011;40993;50.594;8.664;2022-10-16T07:25:59;7.50;;;4.38;;
29516;SDS011;40993;50.594;8.664;2022-10-16T07:28:37;6.25;;;3.83;;
29516;SDS011;40993;50.594;8.664;2022-10-16T07:31:07;4.18;;;2.40;;
29516;SDS011;40993;50.594;8.664;2022-10-16T07:33:37;3.42;;;2.22;;
29516;SDS011;40993;50.594;8.664;2022-10-16T07:36:05;6.95;;;2.50;;
29516;SDS011;40993;50.594;8.664;2022-10-16T07:38:37;3.20;;;2.00;;
29516;SDS011;40993;50.594;8.664;2022-10-16T07:41:05;5.70;;;1.90;;
29516;SDS011;40993;50.594;8.664;2022-10-16T07:43:34;2.67;;;1.90;;
29516;SDS011;40993;50.594;8.664;2022-10-16T07:46:01;5.90;;;1.80;;
29516;SDS011;40993;50.594;8.664;2022-10-16T07:48:33;4.32;;;1.75;;
29516;SDS011;40993;50.594;8.664;2022-10-16T07:51:01;4.05;;;1.58;;
29516;SDS011;40993;50.594;8.664;2022-10-16T07:53:30;3.25;;;2.00;;
29516;SDS011;40993;50.594;8.664;2022-10-16T07:55:58;5.13;;;1.80;;
29516;SDS011;40993;50.594;8.664;2022-10-16T07:58:26;3.83;;;1.88;;
29516;SDS011;40993;50.594;8.664;2022-10-16T08:00:53;4.90;;;1.80;;
29516;SDS011;40993;50.594;8.664;2022-10-16T08:03:21;3.45;;;2.00;;
29516;SDS011;40993;50.594;8.664;2022-10-16T08:05:50;4.13;;;1.65;;
29516;SDS011;40993;50.594;8.664;2022-10-16T08:08:18;2.97;;;1.60;;
29516;SDS011;40993;50.594;8.664;2022-10-16T08:10:45;2.30;;;1.60;;
29516;SDS011;40993;50.594;8.664;2022-10-16T08:13:13;3.97;;;1.90;;
29516;SDS011;40993;50.594;8.664;2022-10-16T08:15:41;2.55;;;1.80;;
29516;SDS011;40993;50.594;8.664;2022-10-16T08:18:09;3.05;;;1.77;;
29516;SDS011;40993;50.594;8.664;2022-10-16T08:20:37;4.05;;;1.90;;
29516;SDS011;40993;50.594;8.664;2022-10-16T08:23:06;5.40;;;2.03;;
29516;SDS011;40993;50.594;8.664;2022-10-16T08:25:34;3.70;;;1.65;;
29516;SDS011;40993;50.594;8.664;2022-10-16T08:28:03;3.67;;;2.22;;
29516;SDS011;40993;50.594;8.664;2022-10-16T08:30:30;3.92;;;2.10;;
29516;SDS011;40993;50.594;8.664;2022-10-16T08:32:58;2.63;;;1.67;;
29516;SDS011;40993;50.594;8.664;2022-10-16T08:35:25;3.78;;;1.50;;
29516;SDS011;40993;50.594;8.664;2022-10-16T08:37:53;3.45;;;1.25;;
29516;SDS011;40993;50.594;8.664;2022-10-16T08:40:22;2.33;;;1.40;;
29516;SDS011;40993;50.594;8.664;2022-10-16T08:43:06;4.65;;;1.70;;
29516;SDS011;40993;50.594;8.664;2022-10-16T08:45:43;4.80;;;1.58;;
29516;SDS011;40993;50.594;8.664;2022-10-16T08:48:20;2.97;;;1.52;;
29516;SDS011;40993;50.594;8.664;2022-10-16T08:50:52;1.90;;;1.40;;
29516;SDS011;40993;50.594;8.664;2022-10-16T08:53:20;1.73;;;1.17;;
29516;SDS011;40993;50.594;8.664;2022-10-16T08:55:52;5.00;;;1.25;;
29516;SDS011;40993;50.594;8.664;2022-10-16T08:58:21;2.47;;;1.50;;
29516;SDS011;40993;50.594;8.664;2022-10-16T09:00:50;2.85;;;1.30;;
29516;SDS011;40993;50.594;8.664;2022-10-16T09:03:23;1.10;;;1.00;;
29516;SDS011;40993;50.594;8.664;2022-10-16T09:05:57;1.45;;;1.10;;
29516;SDS011;40993;50.594;8.664;2022-10-16T09:08:34;2.95;;;1.30;;
29516;SDS011;40993;50.594;8.664;2022-10-16T09:13:36;6.13;;;1.63;;
29516;SDS011;40993;50.594;8.664;2022-10-16T09:16:13;3.83;;;1.08;;
29516;SDS011;40993;50.594;8.664;2022-10-16T09:18:45;3.83;;;1.25;;
29516;SDS011;40993;50.594;8.664;2022-10-16T09:21:18;3.58;;;1.52;;
29516;SDS011;40993;50.594;8.664;2022-10-16T09:23:47;2.30;;;1.23;;
29516;SDS011;40993;50.594;8.664;2022-10-16T09:26:16;8.80;;;1.65;;
29516;SDS011;40993;50.594;8.664;2022-10-16T09:28:45;1.33;;;1.10;;
29516;SDS011;40993;50.594;8.664;2022-10-16T09:31:13;2.38;;;1.50;;
29516;SDS011;40993;50.594;8.664;2022-10-16T09:33:43;2.17;;;1.20;;
29516;SDS011;40993;50.594;8.664;2022-10-16T09:36:11;3.65;;;1.20;;
29516;SDS011;40993;50.594;8.664;2022-10-16T09:38:39;2.22;;;1.27;;
29516;SDS011;40993;50.594;8.664;2022-10-16T09:41:12;5.88;;;1.23;;
29516;SDS011;40993;50.594;8.664;2022-10-16T09:43:46;1.65;;;1.00;;
29516;SDS011;40993;50.594;8.664;2022-10-16T09:46:22;2.65;;;1.30;;
29516;SDS011;40993;50.594;8.664;2022-10-16T09:48:53;3.08;;;1.27;;
29516;SDS011;40993;50.594;8.664;2022-10-16T09:51:23;1.92;;;1.40;;
29516;SDS011;40993;50.594;8.664;2022-10-16T09:53:54;1.80;;;1.00;;
29516;SDS011;40993;50.594;8.664;2022-10-16T09:56:24;2.90;;;0.90;;
29516;SDS011;40993;50.594;8.664;2022-10-16T09:58:54;4.28;;;1.20;;
29516;SDS011;40993;50.594;8.664;2022-10-16T10:01:24;2.55;;;1.10;;
29516;SDS011;40993;50.594;8.664;2022-10-16T10:03:55;1.45;;;0.98;;
29516;SDS011;40993;50.594;8.664;2022-10-16T10:06:28;2.58;;;1.20;;
29516;SDS011;40993;50.594;8.664;2022-10-16T10:08:57;1.40;;;1.00;;
29516;SDS011;40993;50.594;8.664;2022-10-16T10:11:39;1.67;;;0.98;;
29516;SDS011;40993;50.594;8.664;2022-10-16T10:14:22;3.08;;;1.10;;
29516;SDS011;40993;50.594;8.664;2022-10-16T10:16:52;3.85;;;1.00;;
29516;SDS011;40993;50.594;8.664;2022-10-16T10:19:28;1.30;;;0.82;;
29516;SDS011;40993;50.594;8.664;2022-10-16T10:21:58;1.42;;;0.80;;
29516;SDS011;40993;50.594;8.664;2022-10-16T10:24:25;2.10;;;1.00;;
29516;SDS011;40993;50.594;8.664;2022-10-16T10:26:54;1.95;;;1.20;;
29516;SDS011;40993;50.594;8.664;2022-10-16T10:29:30;3.67;;;0.90;;
29516;SDS011;40993;50.594;8.664;2022-10-16T10:32:08;4.72;;;1.30;;
29516;SDS011;40993;50.594;8.664;2022-10-16T10:34:46;3.05;;;1.20;;
29516;SDS011;40993;50.594;8.664;2022-10-16T10:37:29;3.25;;;1.10;;
29516;SDS011;40993;50.594;8.664;2022-10-16T10:40:07;4.50;;;0.90;;
29516;SDS011;40993;50.594;8.664;2022-10-16T10:42:40;6.47;;;0.82;;
29516;SDS011;40993;50.594;8.664;2022-10-16T10:45:24;1.27;;;0.90;;
29516;SDS011;40993;50.594;8.664;2022-10-16T10:47:57;3.60;;;0.90;;
29516;SDS011;40993;50.594;8.664;2022-10-16T10:50:33;3.40;;;1.00;;
29516;SDS011;40993;50.594;8.664;2022-10-16T10:55:37;4.25;;;0.90;;
29516;SDS011;40993;50.594;8.664;2022-10-16T10:58:12;2.97;;;1.02;;
29516;SDS011;40993;50.594;8.664;2022-10-16T11:00:50;4.55;;;1.08;;
29516;SDS011;40993;50.594;8.664;2022-10-16T11:03:27;2.55;;;1.00;;
29516;SDS011;40993;50.594;8.664;2022-10-16T11:06:04;2.90;;;0.95;;
29516;SDS011;40993;50.594;8.664;2022-10-16T11:08:33;3.35;;;0.90;;
29516;SDS011;40993;50.594;8.664;2022-10-16T11:11:03;2.80;;;1.00;;
29516;SDS011;40993;50.594;8.664;2022-10-16T11:13:32;5.78;;;0.73;;
29516;SDS011;40993;50.594;8.664;2022-10-16T11:16:06;2.22;;;0.90;;
29516;SDS011;40993;50.594;8.664;2022-10-16T11:18:47;1.33;;;0.68;;
29516;SDS011;40993;50.594;8.664;2022-10-16T11:21:18;2.00;;;0.95;;
29516;SDS011;40993;50.594;8.664;2022-10-16T11:23:47;1.60;;;0.90;;
29516;SDS011;40993;50.594;8.664;2022-10-16T11:26:19;1.48;;;0.95;;
29516;SDS011;40993;50.594;8.664;2022-10-16T11:28:47;2.20;;;0.98;;
29516;SDS011;40993;50.594;8.664;2022-10-16T11:31:19;3.70;;;1.00;;
29516;SDS011;40993;50.594;8.664;2022-10-16T11:33:51;1.00;;;0.90;;
29516;SDS011;40993;50.594;8.664;2022-10-16T11:36:22;1.63;;;0.90;;
29516;SDS011;40993;50.594;8.664;2022-10-16T11:38:53;1.42;;;0.70;;
29516;SDS011;40993;50.594;8.664;2022-10-16T11:41:27;3.78;;;0.98;;
29516;SDS011;40993;50.594;8.664;2022-10-16T11:44:00;1.70;;;1.08;;
29516;SDS011;40993;50.594;8.664;2022-10-16T11:46:38;1.45;;;0.95;;
29516;SDS011;40993;50.594;8.664;2022-10-16T11:49:27;3.05;;;0.80;;
29516;SDS011;40993;50.594;8.664;2022-10-16T11:51:59;2.85;;;0.80;;
29516;SDS011;40993;50.594;8.664;2022-10-16T11:54:33;1.35;;;0.90;;
29516;SDS011;40993;50.594;8.664;2022-10-16T11:57:05;2.85;;;0.70;;
29516;SDS011;40993;50.594;8.664;2022-10-16T11:59:39;3.45;;;0.90;;
29516;SDS011;40993;50.594;8.664;2022-10-16T12:02:20;5.25;;;0.90;;
29516;SDS011;40993;50.594;8.664;2022-10-16T12:04:56;4.32;;;0.63;;
29516;SDS011;40993;50.594;8.664;2022-10-16T12:07:32;3.03;;;0.70;;
29516;SDS011;40993;50.594;8.664;2022-10-16T12:10:10;4.63;;;0.82;;
29516;SDS011;40993;50.594;8.664;2022-10-16T12:12:39;2.33;;;0.90;;
29516;SDS011;40993;50.594;8.664;2022-10-16T12:15:18;3.65;;;0.90;;
29516;SDS011;40993;50.594;8.664;2022-10-16T12:18:20;1.60;;;0.80;;
29516;SDS011;40993;50.594;8.664;2022-10-16T12:20:54;2.30;;;0.70;;
29516;SDS011;40993;50.594;8.664;2022-10-16T12:23:24;4.00;;;0.70;;
29516;SDS011;40993;50.594;8.664;2022-10-16T12:25:54;2.65;;;0.77;;
29516;SDS011;40993;50.594;8.664;2022-10-16T12:28:22;4.45;;;0.70;;
29516;SDS011;40993;50.594;8.664;2022-10-16T12:30:54;1.60;;;0.75;;
29516;SDS011;40993;50.594;8.664;2022-10-16T12:33:25;3.38;;;0.80;;
29516;SDS011;40993;50.594;8.664;2022-10-16T12:35:53;1.95;;;0.80;;
29516;SDS011;40993;50.594;8.664;2022-10-16T12:38:21;3.50;;;0.70;;
29516;SDS011;40993;50.594;8.664;2022-10-16T12:40:57;4.15;;;1.20;;
29516;SDS011;40993;50.594;8.664;2022-10-16T12:43:36;0.80;;;0.68;;
29516;SDS011;40993;50.594;8.664;2022-10-16T12:46:20;1.48;;;0.70;;
29516;SDS011;40993;50.594;8.664;2022-10-16T12:48:50;1.35;;;0.70;;
29516;SDS011;40993;50.594;8.664;2022-10-16T12:51:34;4.70;;;1.00;;
29516;SDS011;40993;50.594;8.664;2022-10-16T12:54:02;1.73;;;0.70;;
29516;SDS011;40993;50.594;8.664;2022-10-16T12:56:37;1.50;;;0.90;;
29516;SDS011;40993;50.594;8.664;2022-10-16T12:59:14;2.10;;;0.70;;
29516;SDS011;40993;50.594;8.664;2022-10-16T13:01:52;2.13;;;0.80;;
29516;SDS011;40993;50.594;8.664;2022-10-16T13:04:32;3.83;;;0.70;;
29516;SDS011;40993;50.594;8.664;2022-10-16T13:07:13;2.83;;;0.65;;
29516;SDS011;40993;50.594;8.664;2022-10-16T13:09:49;1.65;;;0.63;;
29516;SDS011;40993;50.594;8.664;2022-10-16T13:12:29;1.35;;;0.70;;
29516;SDS011;40993;50.594;8.664;2022-10-16T13:15:12;2.88;;;0.70;;
29516;SDS011;40993;50.594;8.664;2022-10-16T13:17:52;2.38;;;0.70;;
29516;SDS011;40993;50.594;8.664;2022-10-16T13:20:26;0.95;;;0.60;;
29516;SDS011;40993;50.594;8.664;2022-10-16T13:25:28;2.08;;;0.60;;
29516;SDS011;40993;50.594;8.664;2022-10-16T13:28:02;3.10;;;0.60;;
29516;SDS011;40993;50.594;8.664;2022-10-16T13:30:31;0.90;;;0.60;;
29516;SDS011;40993;50.594;8.664;2022-10-16T13:33:02;4.00;;;0.80;;
29516;SDS011;40993;50.594;8.664;2022-10-16T13:35:33;1.75;;;0.68;;
29516;SDS011;40993;50.594;8.664;2022-10-16T13:38:05;1.02;;;0.80;;
29516;SDS011;40993;50.594;8.664;2022-10-16T13:40:47;1.80;;;0.90;;
29516;SDS011;40993;50.594;8.664;2022-10-16T13:43:16;3.10;;;0.95;;
29516;SDS011;40993;50.594;8.664;2022-10-16T13:45:52;2.28;;;0.90;;
29516;SDS011;40993;50.594;8.664;2022-10-16T13:48:20;1.13;;;0.85;;
29516;SDS011;40993;50.594;8.664;2022-10-16T13:50:59;1.98;;;0.90;;
29516;SDS011;40993;50.594;8.664;2022-10-16T13:53:30;1.92;;;1.00;;
29516;SDS011;40993;50.594;8.664;2022-10-16T13:55:59;2.67;;;1.00;;
29516;SDS011;40993;50.594;8.664;2022-10-16T13:58:27;1.80;;;1.20;;
29516;SDS011;40993;50.594;8.664;2022-10-16T14:00:55;3.75;;;1.40;;
29516;SDS011;40993;50.594;8.664;2022-10-16T14:03:24;2.47;;;1.00;;
29516;SDS011;40993;50.594;8.664;2022-10-16T14:05:52;2.03;;;1.00;;
29516;SDS011;40993;50.594;8.664;2022-10-16T14:08:23;1.60;;;0.85;;
29516;SDS011;40993;50.594;8.664;2022-10-16T14:10:52;1.20;;;0.90;;
29516;SDS011;40993;50.594;8.664;2022-10-16T14:13:24;1.38;;;0.90;;
29516;SDS011;40993;50.594;8.664;2022-10-16T14:15:56;1.88;;;1.00;;
29516;SDS011;40993;50.594;8.664;2022-10-16T14:18:25;1.83;;;0.82;;
29516;SDS011;40993;50.594;8.664;2022-10-16T14:21:07;2.60;;;0.95;;
29516;SDS011;40993;50.594;8.664;2022-10-16T14:23:43;3.05;;;1.00;;
29516;SDS011;40993;50.594;8.664;2022-10-16T14:26:14;2.53;;;1.10;;
29516;SDS011;40993;50.594;8.664;2022-10-16T14:28:44;1.30;;;0.90;;
29516;SDS011;40993;50.594;8.664;2022-10-16T14:31:25;4.30;;;1.10;;
29516;SDS011;40993;50.594;8.664;2022-10-16T14:33:56;1.40;;;1.13;;
29516;SDS011;40993;50.594;8.664;2022-10-16T14:36:24;1.58;;;0.90;;
29516;SDS011;40993;50.594;8.664;2022-10-16T14:38:59;2.75;;;1.08;;
29516;SDS011;40993;50.594;8.664;2022-10-16T14:41:28;3.85;;;1.20;;
29516;SDS011;40993;50.594;8.664;2022-10-16T14:43:57;4.70;;;1.40;;
29516;SDS011;40993;50.594;8.664;2022-10-16T14:46:30;4.68;;;1.65;;
29516;SDS011;40993;50.594;8.664;2022-10-16T14:49:01;2.58;;;1.00;;
29516;SDS011;40993;50.594;8.664;2022-10-16T14:51:31;1.83;;;1.17;;
29516;SDS011;40993;50.594;8.664;2022-10-16T14:53:59;1.63;;;1.05;;
29516;SDS011;40993;50.594;8.664;2022-10-16T14:56:29;7.45;;;1.00;;
29516;SDS011;40993;50.594;8.664;2022-10-16T14:58:58;3.17;;;0.95;;
29516;SDS011;40993;50.594;8.664;2022-10-16T15:01:26;4.78;;;1.08;;
29516;SDS011;40993;50.594;8.664;2022-10-16T15:03:54;2.28;;;1.00;;
29516;SDS011;40993;50.594;8.664;2022-10-16T15:06:21;1.65;;;1.02;;
29516;SDS011;40993;50.594;8.664;2022-10-16T15:08:49;2.10;;;0.95;;
29516;SDS011;40993;50.594;8.664;2022-10-16T15:11:18;2.65;;;0.90;;
29516;SDS011;40993;50.594;8.664;2022-10-16T15:13:46;1.52;;;1.00;;
29516;SDS011;40993;50.594;8.664;2022-10-16T15:16:14;2.20;;;1.30;;
29516;SDS011;40993;50.594;8.664;2022-10-16T15:18:43;2.22;;;1.17;;
29516;SDS011;40993;50.594;8.664;2022-10-16T15:21:12;3.10;;;1.10;;
29516;SDS011;40993;50.594;8.664;2022-10-16T15:23:48;2.10;;;1.23;;